Time;durP1;ratioP1;P1;durP2;ratioP2;P2;SDS_P1;SDS_P2;PMS_P1;PMS_P2;Temp;Humidity;BMP_temperature;BMP_pressure;BME280_temperature;BME280_humidity;BME280_pressure;Samples;Min_cycle;Max_cycle;Signal;HPM_P1;HPM_P2
2023/08/30 00:00:33;;;;;;;12.00;6.47;;;;;;;;;;5004442;28;20029;-59
2023/08/30 00:02:59;;;;;;;9.70;6.15;;;;;;;;;;5004831;28;20281;-59
2023/08/30 00:05:24;;;;;;;9.47;6.73;;;;;;;;;;5005256;28;20116;-57
2023/08/30 00:07:49;;;;;;;12.30;6.37;;;;;;;;;;5005077;28;20288;-57
2023/08/30 00:10:14;;;;;;;8.13;6.17;;;;;;;;;;5003576;28;20388;-56
2023/08/30 00:12:39;;;;;;;9.55;5.80;;;;;;;;;;5004993;28;20291;-59
2023/08/30 00:15:05;;;;;;;11.40;6.20;;;;;;;;;;5007676;28;20049;-56
2023/08/30 00:17:30;;;;;;;7.88;5.25;;;;;;;;;;5019278;28;20264;-58
2023/08/30 00:19:55;;;;;;;9.03;5.63;;;;;;;;;;5016547;28;20097;-58
2023/08/30 00:22:21;;;;;;;7.67;5.70;;;;;;;;;;5004773;28;20392;-57
2023/08/30 00:24:46;;;;;;;8.63;5.32;;;;;;;;;;5002323;28;20805;-59
2023/08/30 00:27:12;;;;;;;8.97;5.30;;;;;;;;;;5002998;28;20057;-58
2023/08/30 00:29:37;;;;;;;7.28;5.20;;;;;;;;;;5004424;28;20573;-57
2023/08/30 00:32:02;;;;;;;9.35;5.43;;;;;;;;;;4986754;28;20045;-58
2023/08/30 00:34:28;;;;;;;9.02;4.68;;;;;;;;;;5004428;28;20038;-56
2023/08/30 00:36:53;;;;;;;8.23;4.83;;;;;;;;;;4986902;28;20448;-59
2023/08/30 00:39:18;;;;;;;8.10;4.80;;;;;;;;;;4987088;28;20336;-57
2023/08/30 00:41:43;;;;;;;7.37;4.80;;;;;;;;;;5004466;28;20272;-59
2023/08/30 00:44:09;;;;;;;8.33;4.90;;;;;;;;;;5004873;28;20277;-59
2023/08/30 00:46:34;;;;;;;7.47;4.65;;;;;;;;;;4990039;28;20312;-58
2023/08/30 00:48:59;;;;;;;8.93;5.03;;;;;;;;;;5006694;28;20112;-58
2023/08/30 00:51:25;;;;;;;9.20;5.07;;;;;;;;;;5005175;28;20356;-59
2023/08/30 00:53:50;;;;;;;7.67;5.03;;;;;;;;;;4970818;28;20044;-57
2023/08/30 00:56:15;;;;;;;7.53;5.27;;;;;;;;;;5002929;28;20285;-59
2023/08/30 00:58:40;;;;;;;8.13;5.43;;;;;;;;;;5002756;28;20277;-59
2023/08/30 01:01:09;;;;;;;9.50;4.72;;;;;;;;;;5018888;28;20313;-57
2023/08/30 01:03:34;;;;;;;9.15;5.28;;;;;;;;;;5004698;28;20046;-57
2023/08/30 01:06:00;;;;;;;8.32;4.90;;;;;;;;;;5003892;28;20533;-58
2023/08/30 01:08:25;;;;;;;9.98;4.47;;;;;;;;;;5019883;28;20037;-57
2023/08/30 01:10:56;;;;;;;6.60;4.53;;;;;;;;;;5012664;28;20531;-58
2023/08/30 01:13:21;;;;;;;10.02;4.53;;;;;;;;;;5003891;28;20042;-59
2023/08/30 01:15:47;;;;;;;7.55;4.75;;;;;;;;;;5004312;28;20030;-58
2023/08/30 01:18:13;;;;;;;10.60;4.93;;;;;;;;;;4986248;28;20034;-58
2023/08/30 01:20:38;;;;;;;7.35;5.05;;;;;;;;;;4994183;28;20041;-56
2023/08/30 01:23:09;;;;;;;8.48;4.50;;;;;;;;;;4984631;28;20030;-60
2023/08/30 01:25:54;;;;;;;9.88;4.40;;;;;;;;;;5008988;28;20042;-57
2023/08/30 01:28:19;;;;;;;7.32;4.25;;;;;;;;;;5018926;28;20132;-59
2023/08/30 01:30:45;;;;;;;8.00;4.53;;;;;;;;;;5003700;28;20112;-58
2023/08/30 01:33:10;;;;;;;9.13;4.90;;;;;;;;;;4990280;28;20030;-56
2023/08/30 01:35:37;;;;;;;6.10;3.77;;;;;;;;;;5008212;28;20284;-56
2023/08/30 01:38:03;;;;;;;7.88;4.47;;;;;;;;;;5017662;28;20716;-58
2023/08/30 01:40:28;;;;;;;7.95;4.35;;;;;;;;;;5018444;28;20034;-57
2023/08/30 01:42:53;;;;;;;7.38;4.55;;;;;;;;;;5008148;28;20038;-59
2023/08/30 01:45:19;;;;;;;9.87;4.70;;;;;;;;;;5007943;28;20054;-57
2023/08/30 01:47:44;;;;;;;9.00;4.60;;;;;;;;;;4997559;28;20292;-58
2023/08/30 01:50:09;;;;;;;9.73;4.70;;;;;;;;;;5006859;28;20549;-57
2023/08/30 01:52:35;;;;;;;8.60;4.70;;;;;;;;;;5006468;28;20534;-59
2023/08/30 01:55:00;;;;;;;9.55;5.40;;;;;;;;;;4990201;28;20052;-58
2023/08/30 01:57:25;;;;;;;9.20;5.22;;;;;;;;;;5012139;28;20510;-58
2023/08/30 01:59:50;;;;;;;10.25;4.70;;;;;;;;;;4972169;28;20041;-58
2023/08/30 02:02:16;;;;;;;6.70;4.18;;;;;;;;;;5022664;28;20421;-57
2023/08/30 02:04:41;;;;;;;8.70;5.00;;;;;;;;;;5007242;28;20038;-57
2023/08/30 02:07:08;;;;;;;7.65;4.28;;;;;;;;;;5007611;28;20794;-57
2023/08/30 02:09:39;;;;;;;8.50;4.68;;;;;;;;;;4990115;28;20033;-57
2023/08/30 02:12:05;;;;;;;8.00;4.25;;;;;;;;;;5006351;28;20046;-60
2023/08/30 02:14:30;;;;;;;7.03;4.78;;;;;;;;;;4990187;28;20511;-57
2023/08/30 02:16:55;;;;;;;9.57;5.10;;;;;;;;;;4973839;28;20033;-58
2023/08/30 02:19:21;;;;;;;7.38;4.85;;;;;;;;;;5007787;28;21027;-57
2023/08/30 02:21:46;;;;;;;6.68;4.68;;;;;;;;;;4990143;28;20542;-57
2023/08/30 02:24:11;;;;;;;8.63;4.90;;;;;;;;;;5007459;28;20045;-57
2023/08/30 02:26:37;;;;;;;9.40;4.95;;;;;;;;;;4987963;28;20046;-60
2023/08/30 02:29:02;;;;;;;7.97;4.55;;;;;;;;;;5007401;28;20137;-57
2023/08/30 02:31:28;;;;;;;8.52;5.10;;;;;;;;;;5002190;28;20555;-57
2023/08/30 02:33:54;;;;;;;7.32;4.68;;;;;;;;;;4988578;28;20048;-58
2023/08/30 02:36:19;;;;;;;7.07;4.80;;;;;;;;;;5006778;28;20108;-61
2023/08/30 02:38:44;;;;;;;7.80;4.83;;;;;;;;;;5001583;28;20816;-58
2023/08/30 02:41:10;;;;;;;9.07;4.70;;;;;;;;;;5010941;28;20293;-62
2023/08/30 02:43:35;;;;;;;8.38;5.00;;;;;;;;;;5006224;28;20288;-57
2023/08/30 02:46:01;;;;;;;7.50;4.80;;;;;;;;;;5004551;28;20054;-58
2023/08/30 02:48:26;;;;;;;8.68;4.95;;;;;;;;;;4972413;28;20474;-57
2023/08/30 02:50:52;;;;;;;7.40;4.80;;;;;;;;;;4988851;28;20111;-58
2023/08/30 02:53:17;;;;;;;8.68;5.43;;;;;;;;;;5006264;28;20289;-60
2023/08/30 02:55:42;;;;;;;7.27;4.70;;;;;;;;;;4987022;28;20169;-57
2023/08/30 02:58:07;;;;;;;7.68;5.60;;;;;;;;;;5018170;28;20236;-57
2023/08/30 03:00:34;;;;;;;9.35;5.90;;;;;;;;;;4987186;28;20037;-56
2023/08/30 03:02:59;;;;;;;6.82;4.75;;;;;;;;;;5006258;28;20034;-56
2023/08/30 03:05:24;;;;;;;7.88;4.60;;;;;;;;;;5005942;28;20057;-57
2023/08/30 03:07:51;;;;;;;9.20;5.00;;;;;;;;;;5008557;28;20046;-57
2023/08/30 03:10:16;;;;;;;10.13;5.53;;;;;;;;;;5008731;28;20470;-56
2023/08/30 03:12:41;;;;;;;15.33;5.27;;;;;;;;;;5007091;28;20045;-57
2023/08/30 03:15:07;;;;;;;8.70;4.93;;;;;;;;;;4988314;28;20810;-58
2023/08/30 03:17:32;;;;;;;9.60;5.78;;;;;;;;;;5005789;28;20636;-58
2023/08/30 03:19:58;;;;;;;7.10;5.17;;;;;;;;;;5006119;28;20034;-57
2023/08/30 03:22:23;;;;;;;9.30;5.20;;;;;;;;;;4988076;28;20674;-57
2023/08/30 03:24:49;;;;;;;10.17;4.80;;;;;;;;;;5004657;28;20563;-57
2023/08/30 03:27:14;;;;;;;9.90;6.20;;;;;;;;;;5005539;28;20593;-57
2023/08/30 03:29:40;;;;;;;10.48;4.93;;;;;;;;;;5004010;28;20474;-58
2023/08/30 03:32:05;;;;;;;8.45;4.95;;;;;;;;;;5008765;28;20037;-57
2023/08/30 03:34:30;;;;;;;9.98;4.97;;;;;;;;;;5005382;28;20145;-57
2023/08/30 03:36:55;;;;;;;7.03;5.23;;;;;;;;;;5005793;28;20476;-58
2023/08/30 03:39:21;;;;;;;7.57;4.88;;;;;;;;;;5000481;28;20705;-58
2023/08/30 03:41:46;;;;;;;8.82;4.55;;;;;;;;;;4987996;28;20092;-56
2023/08/30 03:44:11;;;;;;;9.05;5.15;;;;;;;;;;5005481;28;20038;-58
2023/08/30 03:46:37;;;;;;;7.67;4.90;;;;;;;;;;4987826;28;20057;-59
2023/08/30 03:49:03;;;;;;;9.50;4.77;;;;;;;;;;4988169;28;20284;-59
2023/08/30 03:51:28;;;;;;;9.07;5.18;;;;;;;;;;4988160;28;20700;-57
2023/08/30 03:53:56;;;;;;;10.73;4.80;;;;;;;;;;4982702;28;20062;-56
2023/08/30 03:56:21;;;;;;;10.13;4.78;;;;;;;;;;5002154;28;20049;-58
2023/08/30 03:58:46;;;;;;;9.53;5.13;;;;;;;;;;5002725;28;20034;-57
2023/08/30 04:01:11;;;;;;;8.60;4.70;;;;;;;;;;5003693;28;20387;-59
2023/08/30 04:03:36;;;;;;;13.10;5.40;;;;;;;;;;4987742;28;20280;-58
2023/08/30 04:06:02;;;;;;;8.33;4.70;;;;;;;;;;5005075;28;20312;-57
2023/08/30 04:08:27;;;;;;;8.77;4.90;;;;;;;;;;4990224;28;20825;-57
2023/08/30 04:10:52;;;;;;;8.83;5.30;;;;;;;;;;5025205;28;20038;-57
2023/08/30 04:13:18;;;;;;;10.55;5.13;;;;;;;;;;4990099;28;20288;-58
2023/08/30 04:15:43;;;;;;;11.27;5.37;;;;;;;;;;5005989;28;20034;-57
2023/08/30 04:18:08;;;;;;;9.93;4.30;;;;;;;;;;5004071;28;20288;-57
2023/08/30 04:20:33;;;;;;;8.53;4.63;;;;;;;;;;4986174;28;20285;-59
2023/08/30 04:23:01;;;;;;;9.98;5.60;;;;;;;;;;5005221;28;20046;-58
2023/08/30 04:25:26;;;;;;;8.90;4.50;;;;;;;;;;5003442;28;20582;-57
2023/08/30 04:27:52;;;;;;;8.05;4.45;;;;;;;;;;5003582;28;20042;-57
2023/08/30 04:30:17;;;;;;;7.20;4.43;;;;;;;;;;4995873;28;20045;-58
2023/08/30 04:32:42;;;;;;;7.57;4.75;;;;;;;;;;5011449;28;20076;-56
2023/08/30 04:35:08;;;;;;;12.05;5.70;;;;;;;;;;5016870;28;20075;-58
2023/08/30 04:37:33;;;;;;;10.82;5.60;;;;;;;;;;4986274;28;20519;-58
2023/08/30 04:39:58;;;;;;;11.80;6.20;;;;;;;;;;5011498;28;20143;-57
2023/08/30 04:42:24;;;;;;;11.60;6.17;;;;;;;;;;4986669;28;20037;-56
2023/08/30 04:44:50;;;;;;;14.40;7.03;;;;;;;;;;4987951;28;20443;-56
2023/08/30 04:47:15;;;;;;;11.50;5.05;;;;;;;;;;5005433;28;20551;-56
2023/08/30 04:49:40;;;;;;;10.47;4.63;;;;;;;;;;5004879;28;20488;-61
2023/08/30 04:52:05;;;;;;;7.67;3.80;;;;;;;;;;4988307;28;20281;-56
2023/08/30 04:54:31;;;;;;;10.27;5.65;;;;;;;;;;4988049;28;20307;-57
2023/08/30 04:56:56;;;;;;;10.87;4.40;;;;;;;;;;5005333;28;20431;-56
2023/08/30 04:59:21;;;;;;;8.50;3.53;;;;;;;;;;4997549;28;20388;-57
2023/08/30 05:01:46;;;;;;;7.25;3.42;;;;;;;;;;5013661;28;20288;-55
2023/08/30 05:04:12;;;;;;;8.50;3.60;;;;;;;;;;4998155;28;20443;-57
2023/08/30 05:06:37;;;;;;;4.82;2.90;;;;;;;;;;4991755;28;20840;-57
2023/08/30 05:09:02;;;;;;;6.80;2.80;;;;;;;;;;4992824;28;20026;-57
2023/08/30 05:11:28;;;;;;;6.05;2.42;;;;;;;;;;4990109;28;20761;-55
2023/08/30 05:13:54;;;;;;;4.65;2.28;;;;;;;;;;4992408;28;20050;-57
2023/08/30 05:16:19;;;;;;;6.53;2.72;;;;;;;;;;5006654;28;20035;-60
2023/08/30 05:18:44;;;;;;;5.43;2.88;;;;;;;;;;4990840;28;20124;-57
2023/08/30 05:21:10;;;;;;;5.97;2.45;;;;;;;;;;4990389;28;20144;-56
2023/08/30 05:23:35;;;;;;;7.63;3.00;;;;;;;;;;4991858;28;20425;-55
2023/08/30 05:26:00;;;;;;;6.10;2.60;;;;;;;;;;4991508;28;20319;-59
2023/08/30 05:28:26;;;;;;;5.53;2.45;;;;;;;;;;4992116;28;20293;-56
2023/08/30 05:30:51;;;;;;;6.30;2.63;;;;;;;;;;5009602;28;20038;-58
2023/08/30 05:33:16;;;;;;;6.80;2.43;;;;;;;;;;4994058;28;20038;-58
2023/08/30 05:35:41;;;;;;;6.70;2.90;;;;;;;;;;4992891;28;20351;-57
2023/08/30 05:38:07;;;;;;;5.63;3.05;;;;;;;;;;4993070;28;20308;-59
2023/08/30 05:40:32;;;;;;;5.43;2.83;;;;;;;;;;4990870;28;20041;-58
2023/08/30 05:42:57;;;;;;;5.90;3.03;;;;;;;;;;5007346;28;20300;-58
2023/08/30 05:45:23;;;;;;;5.72;3.08;;;;;;;;;;4993503;28;20323;-56
2023/08/30 05:47:49;;;;;;;6.50;3.10;;;;;;;;;;4990321;28;20395;-60
2023/08/30 05:50:14;;;;;;;5.68;2.58;;;;;;;;;;5007783;28;20285;-59
2023/08/30 05:52:41;;;;;;;5.30;2.80;;;;;;;;;;4973083;28;20097;-59
2023/08/30 05:55:07;;;;;;;5.00;2.83;;;;;;;;;;5005528;28;20339;-57
2023/08/30 05:57:33;;;;;;;5.68;2.75;;;;;;;;;;5006136;28;20038;-58
2023/08/30 05:59:58;;;;;;;6.72;2.45;;;;;;;;;;4991236;28;20057;-58
2023/08/30 06:02:24;;;;;;;5.00;2.88;;;;;;;;;;4975129;28;20018;-60
2023/08/30 06:04:49;;;;;;;7.97;2.55;;;;;;;;;;4991367;28;20105;-59
2023/08/30 06:07:15;;;;;;;7.10;2.83;;;;;;;;;;4992092;28;20037;-57
2023/08/30 06:09:40;;;;;;;6.68;2.55;;;;;;;;;;4989601;28;20065;-57
2023/08/30 06:12:06;;;;;;;4.73;2.57;;;;;;;;;;4991470;28;20125;-55
2023/08/30 06:14:31;;;;;;;4.53;2.80;;;;;;;;;;4990246;28;20380;-57
2023/08/30 06:16:56;;;;;;;3.70;2.40;;;;;;;;;;4992627;28;20025;-56
2023/08/30 06:19:21;;;;;;;6.37;2.87;;;;;;;;;;4987052;28;20355;-56
2023/08/30 06:21:46;;;;;;;4.97;2.53;;;;;;;;;;4999734;28;20308;-55
2023/08/30 06:24:12;;;;;;;4.10;2.53;;;;;;;;;;4997402;28;20422;-57
2023/08/30 06:26:37;;;;;;;5.10;2.60;;;;;;;;;;4998308;28;20093;-56
2023/08/30 06:29:02;;;;;;;5.47;2.70;;;;;;;;;;4980999;28;20053;-57
2023/08/30 06:31:28;;;;;;;4.38;2.92;;;;;;;;;;5002667;28;20275;-57
2023/08/30 06:33:54;;;;;;;6.93;3.00;;;;;;;;;;4985996;28;20033;-56
2023/08/30 06:36:22;;;;;;;5.90;2.72;;;;;;;;;;4996868;28;20080;-57
2023/08/30 06:38:47;;;;;;;4.93;2.58;;;;;;;;;;5000483;28;20452;-56
2023/08/30 06:41:12;;;;;;;8.30;2.53;;;;;;;;;;4995904;28;20023;-58
2023/08/30 06:43:37;;;;;;;7.00;2.57;;;;;;;;;;5010579;28;20307;-57
2023/08/30 06:46:03;;;;;;;10.07;2.90;;;;;;;;;;4998617;28;20825;-58
2023/08/30 06:48:28;;;;;;;4.88;2.78;;;;;;;;;;4992566;28;20490;-57
2023/08/30 06:50:56;;;;;;;6.03;2.57;;;;;;;;;;5015951;28;20399;-58
2023/08/30 06:53:22;;;;;;;4.30;2.60;;;;;;;;;;4995424;28;20848;-58
2023/08/30 06:55:55;;;;;;;5.80;2.20;;;;;;;;;;4984397;28;20105;-58
2023/08/30 06:58:21;;;;;;;6.43;2.50;;;;;;;;;;5010959;28;20299;-58
2023/08/30 07:00:46;;;;;;;5.23;2.57;;;;;;;;;;4994293;28;20046;-57
2023/08/30 07:03:11;;;;;;;5.38;2.47;;;;;;;;;;5006161;28;20380;-56
2023/08/30 07:05:37;;;;;;;4.93;2.50;;;;;;;;;;4999010;28;20046;-56
2023/08/30 07:08:02;;;;;;;6.63;2.45;;;;;;;;;;4996110;28;20868;-57
2023/08/30 07:10:27;;;;;;;6.13;2.50;;;;;;;;;;4995575;28;20030;-57
2023/08/30 07:12:53;;;;;;;6.40;2.50;;;;;;;;;;4995748;28;20042;-58
2023/08/30 07:15:18;;;;;;;5.73;2.60;;;;;;;;;;5010030;28;20809;-57
2023/08/30 07:17:43;;;;;;;6.27;3.00;;;;;;;;;;4997322;28;20293;-59
2023/08/30 07:20:09;;;;;;;5.35;3.20;;;;;;;;;;4997005;28;20273;-57
2023/08/30 07:22:34;;;;;;;7.22;3.33;;;;;;;;;;5012863;28;20061;-58
2023/08/30 07:24:59;;;;;;;6.88;2.85;;;;;;;;;;4994207;28;20038;-58
2023/08/30 07:27:25;;;;;;;9.27;3.10;;;;;;;;;;4974967;28;20041;-59
2023/08/30 07:29:50;;;;;;;6.82;3.30;;;;;;;;;;4979388;28;20295;-57
2023/08/30 07:32:15;;;;;;;6.93;3.20;;;;;;;;;;5010900;28;20074;-56
2023/08/30 07:34:41;;;;;;;5.23;2.63;;;;;;;;;;5011066;28;21078;-57
2023/08/30 07:37:16;;;;;;;7.63;3.07;;;;;;;;;;5001087;28;20037;-56
2023/08/30 07:39:41;;;;;;;6.18;3.05;;;;;;;;;;4992937;28;20662;-58
2023/08/30 07:42:06;;;;;;;8.23;3.53;;;;;;;;;;4992958;28;20109;-57
2023/08/30 07:44:32;;;;;;;6.15;2.80;;;;;;;;;;4992459;28;20531;-57
2023/08/30 07:46:57;;;;;;;6.63;3.07;;;;;;;;;;4998001;28;20049;-57
2023/08/30 07:49:22;;;;;;;6.73;2.53;;;;;;;;;;5005339;28;20037;-58
2023/08/30 07:51:48;;;;;;;4.93;2.60;;;;;;;;;;5005232;28;20042;-58
2023/08/30 07:54:13;;;;;;;5.25;2.78;;;;;;;;;;5017075;28;20053;-58
2023/08/30 07:56:38;;;;;;;7.70;2.67;;;;;;;;;;5005560;28;20052;-60
2023/08/30 07:59:03;;;;;;;6.53;2.93;;;;;;;;;;4983668;28;20441;-63
2023/08/30 08:01:29;;;;;;;4.80;2.53;;;;;;;;;;5003223;28;20289;-58
2023/08/30 08:03:54;;;;;;;7.23;3.03;;;;;;;;;;5004961;28;20049;-60
2023/08/30 08:06:19;;;;;;;4.03;2.63;;;;;;;;;;5005183;28;20787;-59
2023/08/30 08:08:44;;;;;;;6.57;3.00;;;;;;;;;;5016076;28;20038;-57
2023/08/30 08:11:10;;;;;;;7.13;2.87;;;;;;;;;;5008459;28;20272;-57
2023/08/30 08:13:35;;;;;;;6.63;2.90;;;;;;;;;;5008748;28;21125;-58
2023/08/30 08:16:00;;;;;;;7.43;2.70;;;;;;;;;;4987924;28;20125;-58
2023/08/30 08:18:26;;;;;;;4.70;2.50;;;;;;;;;;5008317;28;20037;-57
2023/08/30 08:20:52;;;;;;;6.88;2.95;;;;;;;;;;4998333;28;20288;-59
2023/08/30 08:23:17;;;;;;;6.07;2.40;;;;;;;;;;4990744;28;20045;-60
2023/08/30 08:25:43;;;;;;;6.65;3.00;;;;;;;;;;5006253;28;20546;-58
2023/08/30 08:28:08;;;;;;;7.40;3.07;;;;;;;;;;5004162;28;20053;-59
2023/08/30 08:30:33;;;;;;;7.27;3.07;;;;;;;;;;4991232;28;20038;-59
2023/08/30 08:32:59;;;;;;;6.18;2.88;;;;;;;;;;5007330;28;20037;-60
2023/08/30 08:35:24;;;;;;;6.18;2.85;;;;;;;;;;4997604;28;20522;-59
2023/08/30 08:37:50;;;;;;;6.13;2.80;;;;;;;;;;4970756;28;20026;-58
2023/08/30 08:40:16;;;;;;;6.32;3.10;;;;;;;;;;5004013;28;20277;-58
2023/08/30 08:42:41;;;;;;;5.38;2.88;;;;;;;;;;4985939;28;20048;-60
2023/08/30 08:45:06;;;;;;;7.70;3.23;;;;;;;;;;4986203;28;20041;-58
2023/08/30 08:47:32;;;;;;;5.75;2.67;;;;;;;;;;4986504;28;20707;-57
2023/08/30 08:50:00;;;;;;;6.37;2.67;;;;;;;;;;5003242;28;20034;-59
2023/08/30 08:52:25;;;;;;;4.85;2.50;;;;;;;;;;4986619;28;20296;-56
2023/08/30 08:54:50;;;;;;;6.50;2.77;;;;;;;;;;5003480;28;20038;-59
2023/08/30 08:57:16;;;;;;;7.70;2.77;;;;;;;;;;5001756;28;20459;-59
2023/08/30 08:59:41;;;;;;;5.47;2.90;;;;;;;;;;5003429;28;20857;-58
2023/08/30 09:02:07;;;;;;;5.78;2.53;;;;;;;;;;5019541;28;20758;-58
2023/08/30 09:04:32;;;;;;;6.55;2.80;;;;;;;;;;5004329;28;20049;-58
2023/08/30 09:07:00;;;;;;;5.20;2.33;;;;;;;;;;4986229;28;20042;-57
2023/08/30 09:09:26;;;;;;;6.70;2.67;;;;;;;;;;4986171;28;20034;-57
2023/08/30 09:11:51;;;;;;;6.30;2.28;;;;;;;;;;4973233;28;20204;-57
2023/08/30 09:14:17;;;;;;;6.90;2.55;;;;;;;;;;4989763;28;20034;-58
2023/08/30 09:16:42;;;;;;;6.05;2.55;;;;;;;;;;5005612;28;20241;-58
2023/08/30 09:19:10;;;;;;;5.05;2.40;;;;;;;;;;5006422;28;20037;-57
2023/08/30 09:21:35;;;;;;;7.30;3.00;;;;;;;;;;4990688;28;20042;-57
2023/08/30 09:24:01;;;;;;;7.37;3.10;;;;;;;;;;4969102;28;20042;-59
2023/08/30 09:26:28;;;;;;;5.80;2.72;;;;;;;;;;4989126;28;20655;-59
2023/08/30 09:28:53;;;;;;;5.07;2.53;;;;;;;;;;5006548;28;20057;-60
2023/08/30 09:31:22;;;;;;;5.82;2.78;;;;;;;;;;4987853;28;20612;-60
2023/08/30 09:33:50;;;;;;;4.72;2.50;;;;;;;;;;4977064;28;20057;-59
2023/08/30 09:36:15;;;;;;;5.72;2.78;;;;;;;;;;4989552;28;20035;-59
2023/08/30 09:38:41;;;;;;;6.22;2.80;;;;;;;;;;4986903;28;20045;-59
2023/08/30 09:41:06;;;;;;;7.10;3.17;;;;;;;;;;4986065;28;20051;-58
2023/08/30 09:43:34;;;;;;;7.30;3.10;;;;;;;;;;4986745;28;20359;-59
2023/08/30 09:46:02;;;;;;;6.53;2.83;;;;;;;;;;4987247;28;20316;-58
2023/08/30 09:48:28;;;;;;;5.20;2.95;;;;;;;;;;4987210;28;20061;-59
2023/08/30 09:50:54;;;;;;;9.25;3.70;;;;;;;;;;4987001;28;20078;-60
2023/08/30 09:53:19;;;;;;;5.93;3.30;;;;;;;;;;4991368;28;20038;-59
2023/08/30 09:55:45;;;;;;;6.70;3.50;;;;;;;;;;4989858;28;20053;-60
2023/08/30 09:58:10;;;;;;;6.17;3.07;;;;;;;;;;4990934;28;20383;-59
2023/08/30 10:00:36;;;;;;;5.90;2.93;;;;;;;;;;4991593;28;20571;-60
2023/08/30 10:03:01;;;;;;;6.18;3.05;;;;;;;;;;5008638;28;20587;-59
2023/08/30 10:05:27;;;;;;;5.45;3.08;;;;;;;;;;4989542;28;20038;-60
2023/08/30 10:07:52;;;;;;;6.25;2.97;;;;;;;;;;4979379;28;20388;-58
2023/08/30 10:10:17;;;;;;;5.20;3.05;;;;;;;;;;4990514;28;20038;-59
2023/08/30 10:12:43;;;;;;;5.97;2.83;;;;;;;;;;5007717;28;20748;-61
2023/08/30 10:15:08;;;;;;;7.57;3.00;;;;;;;;;;4989754;28;20320;-58
2023/08/30 10:17:34;;;;;;;4.93;3.05;;;;;;;;;;4995273;28;20045;-58
2023/08/30 10:19:59;;;;;;;7.38;3.30;;;;;;;;;;4995686;28;20070;-58
2023/08/30 10:22:24;;;;;;;6.55;3.10;;;;;;;;;;5000060;28;20050;-59
2023/08/30 10:24:54;;;;;;;9.60;3.50;;;;;;;;;;5012774;28;20129;-59
2023/08/30 10:27:19;;;;;;;7.38;3.20;;;;;;;;;;4994287;28;20073;-59
2023/08/30 10:29:45;;;;;;;6.00;3.03;;;;;;;;;;4996015;28;20065;-58
2023/08/30 10:32:10;;;;;;;8.27;3.40;;;;;;;;;;4996342;28;20354;-59
2023/08/30 10:34:35;;;;;;;4.85;3.20;;;;;;;;;;4998843;28;20038;-58
2023/08/30 10:37:01;;;;;;;4.68;3.03;;;;;;;;;;4994474;28;20041;-60
2023/08/30 10:39:36;;;;;;;5.32;3.05;;;;;;;;;;4994616;28;20495;-59
2023/08/30 10:42:06;;;;;;;5.72;3.53;;;;;;;;;;4999398;28;20503;-60
2023/08/30 10:44:32;;;;;;;6.28;3.55;;;;;;;;;;4992972;28;20105;-59
2023/08/30 10:46:57;;;;;;;6.38;3.33;;;;;;;;;;4996935;28;20054;-58
2023/08/30 10:49:23;;;;;;;6.07;3.40;;;;;;;;;;4996348;28;20037;-59
2023/08/30 10:51:57;;;;;;;4.97;3.25;;;;;;;;;;4996689;28;20044;-60
2023/08/30 10:54:23;;;;;;;7.60;3.35;;;;;;;;;;4992270;28;20153;-59
2023/08/30 10:56:51;;;;;;;5.63;3.30;;;;;;;;;;4989772;28;20133;-58
2023/08/30 10:59:20;;;;;;;5.47;3.83;;;;;;;;;;4993431;28;20717;-57
2023/08/30 11:01:45;;;;;;;5.95;3.30;;;;;;;;;;4991742;28;20040;-58
2023/08/30 11:04:10;;;;;;;5.90;3.65;;;;;;;;;;4993117;28;20034;-60
2023/08/30 11:06:38;;;;;;;8.13;3.67;;;;;;;;;;5012523;28;20411;-61
2023/08/30 11:09:03;;;;;;;6.07;3.40;;;;;;;;;;5008436;28;20049;-59
2023/08/30 11:11:28;;;;;;;6.93;3.60;;;;;;;;;;4994964;28;20042;-59
2023/08/30 11:13:54;;;;;;;7.20;3.58;;;;;;;;;;4998122;28;20049;-58
2023/08/30 11:16:22;;;;;;;6.47;3.55;;;;;;;;;;4997145;28;20040;-59
2023/08/30 11:18:47;;;;;;;6.38;3.80;;;;;;;;;;4994372;28;20538;-59
2023/08/30 11:21:12;;;;;;;5.33;3.57;;;;;;;;;;5012158;28;20029;-60
2023/08/30 11:23:38;;;;;;;5.45;3.70;;;;;;;;;;4994031;28;20057;-60
2023/08/30 11:26:03;;;;;;;6.17;3.73;;;;;;;;;;4974264;28;20054;-59
2023/08/30 11:28:29;;;;;;;6.60;3.65;;;;;;;;;;5007304;28;20038;-59
2023/08/30 11:30:54;;;;;;;5.67;3.63;;;;;;;;;;5007370;28;20022;-61
2023/08/30 11:33:20;;;;;;;5.80;3.78;;;;;;;;;;4994283;28;20348;-60
2023/08/30 11:35:45;;;;;;;7.95;4.03;;;;;;;;;;4974027;28;20907;-59
2023/08/30 11:38:10;;;;;;;5.03;3.67;;;;;;;;;;4990721;28;20129;-60
2023/08/30 11:40:36;;;;;;;5.90;3.63;;;;;;;;;;4991855;28;20050;-60
2023/08/30 11:43:02;;;;;;;6.90;3.83;;;;;;;;;;4990113;28;20084;-59
2023/08/30 11:45:28;;;;;;;5.85;3.63;;;;;;;;;;4991976;28;21035;-59
2023/08/30 11:47:53;;;;;;;7.00;3.90;;;;;;;;;;4991715;28;20023;-59
2023/08/30 11:50:19;;;;;;;5.30;3.53;;;;;;;;;;5005865;28;20428;-60
2023/08/30 11:52:44;;;;;;;5.43;3.70;;;;;;;;;;4992792;28;20335;-59
2023/08/30 11:55:09;;;;;;;8.20;3.90;;;;;;;;;;4980796;28;20472;-60
2023/08/30 11:57:35;;;;;;;6.57;4.50;;;;;;;;;;5011920;28;20034;-59
2023/08/30 12:00:10;;;;;;;5.95;3.42;;;;;;;;;;4989547;28;20112;-60
2023/08/30 12:02:36;;;;;;;5.60;3.63;;;;;;;;;;4989478;28;20046;-58
2023/08/30 12:05:01;;;;;;;6.97;3.97;;;;;;;;;;4987651;28;20052;-59
2023/08/30 12:07:26;;;;;;;5.83;3.50;;;;;;;;;;4989420;28;20128;-58
2023/08/30 12:09:52;;;;;;;7.25;3.78;;;;;;;;;;4987035;28;20281;-59
2023/08/30 12:12:17;;;;;;;7.17;3.63;;;;;;;;;;4989879;28;20364;-60
2023/08/30 12:14:43;;;;;;;5.93;3.80;;;;;;;;;;4990203;28;20392;-60
2023/08/30 12:17:12;;;;;;;7.22;4.13;;;;;;;;;;4990771;28;20018;-59
2023/08/30 12:19:37;;;;;;;6.10;4.03;;;;;;;;;;4989242;28;20018;-59
2023/08/30 12:22:03;;;;;;;5.33;3.70;;;;;;;;;;5008183;28;20013;-60
2023/08/30 12:24:28;;;;;;;6.57;3.97;;;;;;;;;;4972103;28;20836;-59
2023/08/30 12:26:53;;;;;;;9.03;3.90;;;;;;;;;;4988821;28;20045;-59
2023/08/30 12:29:18;;;;;;;5.00;3.90;;;;;;;;;;4989474;28;20014;-60
2023/08/30 12:31:44;;;;;;;4.93;3.70;;;;;;;;;;4991654;28;20025;-59
2023/08/30 12:34:09;;;;;;;7.13;3.97;;;;;;;;;;4989115;28;20805;-59
2023/08/30 12:36:34;;;;;;;6.33;3.83;;;;;;;;;;4987700;28;20022;-59
2023/08/30 12:38:59;;;;;;;6.70;4.10;;;;;;;;;;4988751;28;20037;-61
2023/08/30 12:41:25;;;;;;;6.13;3.97;;;;;;;;;;4988634;28;20472;-60
2023/08/30 12:43:51;;;;;;;5.20;4.13;;;;;;;;;;4988078;28;20037;-62
2023/08/30 12:46:16;;;;;;;7.43;4.47;;;;;;;;;;4987582;28;20379;-59
2023/08/30 12:48:42;;;;;;;6.70;4.03;;;;;;;;;;4982611;28;20103;-60
2023/08/30 12:51:07;;;;;;;7.93;3.90;;;;;;;;;;4988419;28;20033;-60
2023/08/30 12:53:32;;;;;;;6.50;4.30;;;;;;;;;;4989838;28;20026;-60
2023/08/30 12:55:57;;;;;;;7.00;4.10;;;;;;;;;;4999369;28;20050;-60
2023/08/30 12:58:23;;;;;;;6.43;3.70;;;;;;;;;;5003995;28;20472;-60
2023/08/30 13:00:49;;;;;;;6.30;3.83;;;;;;;;;;5009869;28;20324;-60
2023/08/30 13:03:14;;;;;;;9.05;4.03;;;;;;;;;;4989031;28;20158;-61
2023/08/30 13:05:40;;;;;;;6.70;4.20;;;;;;;;;;4998779;28;20523;-59
2023/08/30 13:08:05;;;;;;;7.87;4.37;;;;;;;;;;4990792;28;20038;-60
2023/08/30 13:10:30;;;;;;;6.90;4.38;;;;;;;;;;4998294;28;20127;-60
2023/08/30 13:12:57;;;;;;;7.00;4.03;;;;;;;;;;4994599;28;20077;-60
2023/08/30 13:15:22;;;;;;;8.35;4.22;;;;;;;;;;5000859;28;20033;-59
2023/08/30 13:17:47;;;;;;;5.55;3.55;;;;;;;;;;5013120;28;20046;-60
2023/08/30 13:20:12;;;;;;;6.27;3.63;;;;;;;;;;4997391;28;20042;-58
2023/08/30 13:22:38;;;;;;;5.47;3.50;;;;;;;;;;4996901;28;20047;-59
2023/08/30 13:25:06;;;;;;;5.67;3.20;;;;;;;;;;4993852;28;20205;-59
2023/08/30 13:27:31;;;;;;;7.60;3.00;;;;;;;;;;5003282;28;20038;-59
2023/08/30 13:29:56;;;;;;;6.43;3.43;;;;;;;;;;5010892;28;20462;-60
2023/08/30 13:32:21;;;;;;;5.43;3.43;;;;;;;;;;5000754;28;20034;-58
2023/08/30 13:34:47;;;;;;;6.37;3.50;;;;;;;;;;5014906;28;20305;-59
2023/08/30 13:37:12;;;;;;;5.30;2.90;;;;;;;;;;5008412;28;20298;-60
2023/08/30 13:39:38;;;;;;;6.28;3.10;;;;;;;;;;5000223;28;20117;-59
2023/08/30 13:42:03;;;;;;;6.35;3.25;;;;;;;;;;5007352;28;20124;-59
2023/08/30 13:44:29;;;;;;;5.75;3.10;;;;;;;;;;5006770;28;20759;-59
2023/08/30 13:46:54;;;;;;;4.90;2.90;;;;;;;;;;5011278;28;20056;-61
2023/08/30 13:49:20;;;;;;;5.53;3.07;;;;;;;;;;5009793;28;20269;-60
2023/08/30 13:51:45;;;;;;;4.28;2.75;;;;;;;;;;5006038;28;20852;-60
2023/08/30 13:54:10;;;;;;;5.80;2.63;;;;;;;;;;5006569;28;20564;-59
2023/08/30 13:56:37;;;;;;;4.80;2.60;;;;;;;;;;4990096;28;20426;-59
2023/08/30 13:59:03;;;;;;;6.00;3.05;;;;;;;;;;5005761;28;20457;-60
2023/08/30 14:01:28;;;;;;;6.25;2.78;;;;;;;;;;4988649;28;20072;-60
2023/08/30 14:03:54;;;;;;;6.50;2.87;;;;;;;;;;5007446;28;20038;-60
2023/08/30 14:06:19;;;;;;;4.00;2.90;;;;;;;;;;5022607;28;20332;-61
2023/08/30 14:08:44;;;;;;;4.57;2.70;;;;;;;;;;5006022;28;20785;-59
2023/08/30 14:11:09;;;;;;;4.20;2.60;;;;;;;;;;5007475;28;20758;-60
2023/08/30 14:13:34;;;;;;;5.13;2.67;;;;;;;;;;5007406;28;20416;-59
2023/08/30 14:16:00;;;;;;;7.13;2.87;;;;;;;;;;5007459;28;20328;-56
2023/08/30 14:18:26;;;;;;;5.32;2.80;;;;;;;;;;5007216;28;20038;-57
2023/08/30 14:20:51;;;;;;;5.45;3.10;;;;;;;;;;4992089;28;20114;-58
2023/08/30 14:23:16;;;;;;;4.72;2.60;;;;;;;;;;5008313;28;20046;-59
2023/08/30 14:25:42;;;;;;;5.37;2.60;;;;;;;;;;4981094;28;20049;-59
2023/08/30 14:28:07;;;;;;;4.25;2.63;;;;;;;;;;4993302;28;20044;-60
2023/08/30 14:30:32;;;;;;;4.57;2.60;;;;;;;;;;4979787;28;20487;-59
2023/08/30 14:32:57;;;;;;;5.35;2.58;;;;;;;;;;4980804;28;20621;-59